sensor_id;sensor_type;location;lat;lon;timestamp;temperature;humidity
42187;DHT22;27858;51.414;0.018;2023-04-28T00:00:02;11.70;99.90
42187;DHT22;27858;51.414;0.018;2023-04-28T04:02:50;12.50;99.90
42187;DHT22;27858;51.414;0.018;2023-04-28T04:05:17;12.20;99.90
42187;DHT22;27858;51.414;0.018;2023-04-28T04:07:44;12.10;99.90
42187;DHT22;27858;51.414;0.018;2023-04-28T04:10:11;12.30;99.90
42187;DHT22;27858;51.414;0.018;2023-04-28T04:12:38;12.30;99.90
42187;DHT22;27858;51.414;0.018;2023-04-28T04:15:05;12.30;99.90
42187;DHT22;27858;51.414;0.018;2023-04-28T04:17:32;12.20;99.90
42187;DHT22;27858;51.414;0.018;2023-04-28T04:19:59;12.30;99.90
42187;DHT22;27858;51.414;0.018;2023-04-28T04:22:26;12.20;99.90
42187;DHT22;27858;51.414;0.018;2023-04-28T04:24:53;12.20;99.90
42187;DHT22;27858;51.414;0.018;2023-04-28T04:27:19;12.20;99.90
42187;DHT22;27858;51.414;0.018;2023-04-28T04:29:46;11.90;99.90
42187;DHT22;27858;51.414;0.018;2023-04-28T04:32:13;11.90;99.90
42187;DHT22;27858;51.414;0.018;2023-04-28T04:34:40;11.90;99.90
42187;DHT22;27858;51.414;0.018;2023-04-28T04:37:07;12.10;99.90
42187;DHT22;27858;51.414;0.018;2023-04-28T04:39:34;11.90;99.90
42187;DHT22;27858;51.414;0.018;2023-04-28T04:42:01;12.10;99.90
42187;DHT22;27858;51.414;0.018;2023-04-28T04:44:48;12.10;99.90
42187;DHT22;27858;51.414;0.018;2023-04-28T04:47:15;11.90;99.90
42187;DHT22;27858;51.414;0.018;2023-04-28T04:49:41;11.90;99.90
42187;DHT22;27858;51.414;0.018;2023-04-28T04:52:08;12.00;99.90
42187;DHT22;27858;51.414;0.018;2023-04-28T04:54:35;12.00;99.90
42187;DHT22;27858;51.414;0.018;2023-04-28T04:57:02;12.10;99.90
42187;DHT22;27858;51.414;0.018;2023-04-28T04:59:29;11.90;99.90
42187;DHT22;27858;51.414;0.018;2023-04-28T05:01:55;11.90;99.90
42187;DHT22;27858;51.414;0.018;2023-04-28T05:04:22;12.10;99.90
42187;DHT22;27858;51.414;0.018;2023-04-28T05:06:49;12.00;99.90
42187;DHT22;27858;51.414;0.018;2023-04-28T05:09:17;12.00;99.90
42187;DHT22;27858;51.414;0.018;2023-04-28T05:11:44;11.90;99.90
42187;DHT22;27858;51.414;0.018;2023-04-28T05:14:11;11.90;99.90
42187;DHT22;27858;51.414;0.018;2023-04-28T05:16:38;12.10;99.90
42187;DHT22;27858;51.414;0.018;2023-04-28T05:19:05;11.90;99.90
42187;DHT22;27858;51.414;0.018;2023-04-28T05:21:32;12.00;99.90
42187;DHT22;27858;51.414;0.018;2023-04-28T05:23:59;12.10;99.90
42187;DHT22;27858;51.414;0.018;2023-04-28T05:26:25;12.00;99.90
42187;DHT22;27858;51.414;0.018;2023-04-28T05:28:52;12.10;99.90
42187;DHT22;27858;51.414;0.018;2023-04-28T05:31:19;12.00;99.90
42187;DHT22;27858;51.414;0.018;2023-04-28T05:33:46;12.10;99.90
42187;DHT22;27858;51.414;0.018;2023-04-28T05:36:14;12.00;99.90
42187;DHT22;27858;51.414;0.018;2023-04-28T05:38:42;12.20;99.90
42187;DHT22;27858;51.414;0.018;2023-04-28T05:41:09;12.00;99.90
42187;DHT22;27858;51.414;0.018;2023-04-28T05:43:36;12.10;99.90
42187;DHT22;27858;51.414;0.018;2023-04-28T05:46:03;12.30;99.90
42187;DHT22;27858;51.414;0.018;2023-04-28T05:48:40;12.10;99.90
42187;DHT22;27858;51.414;0.018;2023-04-28T05:51:07;12.00;99.90
42187;DHT22;27858;51.414;0.018;2023-04-28T05:53:33;12.30;99.90
42187;DHT22;27858;51.414;0.018;2023-04-28T05:56:00;12.10;99.90
42187;DHT22;27858;51.414;0.018;2023-04-28T05:58:27;12.30;99.90
42187;DHT22;27858;51.414;0.018;2023-04-28T06:00:55;12.30;99.90
42187;DHT22;27858;51.414;0.018;2023-04-28T06:03:22;12.20;99.90
42187;DHT22;27858;51.414;0.018;2023-04-28T06:05:49;12.30;99.90
42187;DHT22;27858;51.414;0.018;2023-04-28T06:08:16;12.20;99.90
42187;DHT22;27858;51.414;0.018;2023-04-28T06:10:43;12.30;99.90
42187;DHT22;27858;51.414;0.018;2023-04-28T06:13:10;12.30;99.90
42187;DHT22;27858;51.414;0.018;2023-04-28T06:15:40;12.40;99.90
42187;DHT22;27858;51.414;0.018;2023-04-28T06:18:06;12.40;99.90
42187;DHT22;27858;51.414;0.018;2023-04-28T06:20:35;12.30;99.90
42187;DHT22;27858;51.414;0.018;2023-04-28T06:23:02;12.40;99.90
42187;DHT22;27858;51.414;0.018;2023-04-28T06:25:29;12.50;99.90
42187;DHT22;27858;51.414;0.018;2023-04-28T06:27:55;12.60;99.90
42187;DHT22;27858;51.414;0.018;2023-04-28T06:30:23;12.70;99.90
42187;DHT22;27858;51.414;0.018;2023-04-28T06:32:50;12.80;99.90
42187;DHT22;27858;51.414;0.018;2023-04-28T06:35:17;12.90;99.90
42187;DHT22;27858;51.414;0.018;2023-04-28T06:37:44;12.90;99.90
42187;DHT22;27858;51.414;0.018;2023-04-28T06:40:11;12.90;99.90
42187;DHT22;27858;51.414;0.018;2023-04-28T06:42:38;13.00;99.90
42187;DHT22;27858;51.414;0.018;2023-04-28T06:45:05;12.90;99.90
42187;DHT22;27858;51.414;0.018;2023-04-28T06:47:32;13.00;99.90
42187;DHT22;27858;51.414;0.018;2023-04-28T06:49:59;13.10;99.90
42187;DHT22;27858;51.414;0.018;2023-04-28T06:52:27;13.30;99.90
42187;DHT22;27858;51.414;0.018;2023-04-28T06:55:06;13.30;99.90
42187;DHT22;27858;51.414;0.018;2023-04-28T06:57:33;13.30;99.90
42187;DHT22;27858;51.414;0.018;2023-04-28T07:00:00;13.20;99.90
42187;DHT22;27858;51.414;0.018;2023-04-28T07:02:26;13.20;99.90
42187;DHT22;27858;51.414;0.018;2023-04-28T07:04:53;13.10;99.90
42187;DHT22;27858;51.414;0.018;2023-04-28T07:07:20;13.10;99.90
42187;DHT22;27858;51.414;0.018;2023-04-28T07:09:47;13.10;99.90
42187;DHT22;27858;51.414;0.018;2023-04-28T07:12:14;13.10;99.90
42187;DHT22;27858;51.414;0.018;2023-04-28T07:14:41;13.10;99.90
42187;DHT22;27858;51.414;0.018;2023-04-28T07:17:07;13.20;99.90
42187;DHT22;27858;51.414;0.018;2023-04-28T07:19:34;13.20;99.90
42187;DHT22;27858;51.414;0.018;2023-04-28T07:22:01;13.10;99.90
42187;DHT22;27858;51.414;0.018;2023-04-28T07:24:28;13.10;99.90
42187;DHT22;27858;51.414;0.018;2023-04-28T07:26:55;13.20;99.90
42187;DHT22;27858;51.414;0.018;2023-04-28T07:29:22;13.10;99.90
42187;DHT22;27858;51.414;0.018;2023-04-28T07:31:49;13.20;99.90
42187;DHT22;27858;51.414;0.018;2023-04-28T07:34:16;13.10;99.90
42187;DHT22;27858;51.414;0.018;2023-04-28T07:36:43;13.20;99.90
42187;DHT22;27858;51.414;0.018;2023-04-28T07:39:10;13.20;99.90
42187;DHT22;27858;51.414;0.018;2023-04-28T07:41:37;13.20;99.90
42187;DHT22;27858;51.414;0.018;2023-04-28T07:44:05;13.10;99.90
42187;DHT22;27858;51.414;0.018;2023-04-28T07:46:34;13.10;99.90
42187;DHT22;27858;51.414;0.018;2023-04-28T07:49:01;13.20;99.90
42187;DHT22;27858;51.414;0.018;2023-04-28T07:51:28;13.20;99.90
42187;DHT22;27858;51.414;0.018;2023-04-28T07:53:55;13.20;99.90
42187;DHT22;27858;51.414;0.018;2023-04-28T07:56:23;13.20;99.90
42187;DHT22;27858;51.414;0.018;2023-04-28T07:58:51;13.30;99.90
42187;DHT22;27858;51.414;0.018;2023-04-28T08:01:18;13.30;99.90
42187;DHT22;27858;51.414;0.018;2023-04-28T08:03:45;13.40;99.90
42187;DHT22;27858;51.414;0.018;2023-04-28T08:06:12;13.40;99.90
42187;DHT22;27858;51.414;0.018;2023-04-28T08:08:39;13.40;99.90
42187;DHT22;27858;51.414;0.018;2023-04-28T08:11:06;13.40;99.90
42187;DHT22;27858;51.414;0.018;2023-04-28T08:13:33;13.50;99.90
42187;DHT22;27858;51.414;0.018;2023-04-28T08:16:00;13.60;99.90
42187;DHT22;27858;51.414;0.018;2023-04-28T08:18:28;13.80;99.90
42187;DHT22;27858;51.414;0.018;2023-04-28T08:20:54;13.90;99.90
42187;DHT22;27858;51.414;0.018;2023-04-28T08:23:21;13.80;99.90
42187;DHT22;27858;51.414;0.018;2023-04-28T08:25:49;13.90;99.90
42187;DHT22;27858;51.414;0.018;2023-04-28T08:28:16;14.00;99.90
42187;DHT22;27858;51.414;0.018;2023-04-28T08:30:42;14.20;99.90
42187;DHT22;27858;51.414;0.018;2023-04-28T08:33:09;14.20;99.90
42187;DHT22;27858;51.414;0.018;2023-04-28T08:35:36;14.20;99.90
42187;DHT22;27858;51.414;0.018;2023-04-28T08:38:03;14.30;99.90
42187;DHT22;27858;51.414;0.018;2023-04-28T08:40:30;14.40;99.90
42187;DHT22;27858;51.414;0.018;2023-04-28T08:42:57;14.30;99.90
42187;DHT22;27858;51.414;0.018;2023-04-28T08:45:25;14.40;99.90
42187;DHT22;27858;51.414;0.018;2023-04-28T08:47:54;14.60;99.90
42187;DHT22;27858;51.414;0.018;2023-04-28T08:50:23;14.60;99.90
42187;DHT22;27858;51.414;0.018;2023-04-28T08:52:51;14.60;99.90
42187;DHT22;27858;51.414;0.018;2023-04-28T08:55:19;14.60;99.90
42187;DHT22;27858;51.414;0.018;2023-04-28T08:57:50;14.60;99.90
42187;DHT22;27858;51.414;0.018;2023-04-28T09:00:20;14.70;99.90
42187;DHT22;27858;51.414;0.018;2023-04-28T09:02:47;14.70;99.90
42187;DHT22;27858;51.414;0.018;2023-04-28T09:05:14;14.70;99.90
42187;DHT22;27858;51.414;0.018;2023-04-28T09:07:44;14.70;99.90
42187;DHT22;27858;51.414;0.018;2023-04-28T09:10:22;14.70;99.90
42187;DHT22;27858;51.414;0.018;2023-04-28T09:12:52;14.70;99.90
42187;DHT22;27858;51.414;0.018;2023-04-28T09:17:52;14.80;99.90
42187;DHT22;27858;51.414;0.018;2023-04-28T09:20:21;14.80;99.90
42187;DHT22;27858;51.414;0.018;2023-04-28T09:22:52;14.80;99.90
42187;DHT22;27858;51.414;0.018;2023-04-28T09:25:20;15.00;99.90
42187;DHT22;27858;51.414;0.018;2023-04-28T09:27:51;15.20;99.90
42187;DHT22;27858;51.414;0.018;2023-04-28T09:30:18;15.40;99.90
42187;DHT22;27858;51.414;0.018;2023-04-28T09:33:03;15.30;99.90
42187;DHT22;27858;51.414;0.018;2023-04-28T09:35:39;15.30;99.90
42187;DHT22;27858;51.414;0.018;2023-04-28T09:38:06;15.30;99.90
42187;DHT22;27858;51.414;0.018;2023-04-28T09:41:00;15.10;99.90
42187;DHT22;27858;51.414;0.018;2023-04-28T09:43:33;14.90;99.90
42187;DHT22;27858;51.414;0.018;2023-04-28T09:46:03;14.60;99.90
42187;DHT22;27858;51.414;0.018;2023-04-28T09:48:37;14.60;99.90
42187;DHT22;27858;51.414;0.018;2023-04-28T09:51:07;14.60;99.90
42187;DHT22;27858;51.414;0.018;2023-04-28T09:53:38;14.60;99.90
42187;DHT22;27858;51.414;0.018;2023-04-28T09:56:06;14.50;99.90
42187;DHT22;27858;51.414;0.018;2023-04-28T09:58:34;14.50;99.90
42187;DHT22;27858;51.414;0.018;2023-04-28T10:01:06;14.50;99.90
42187;DHT22;27858;51.414;0.018;2023-04-28T10:03:38;14.60;99.90
42187;DHT22;27858;51.414;0.018;2023-04-28T10:06:06;14.60;99.90
42187;DHT22;27858;51.414;0.018;2023-04-28T10:08:34;14.60;99.90
42187;DHT22;27858;51.414;0.018;2023-04-28T10:11:01;14.70;99.90
42187;DHT22;27858;51.414;0.018;2023-04-28T10:13:29;14.80;99.90
42187;DHT22;27858;51.414;0.018;2023-04-28T10:15:56;14.80;99.90
42187;DHT22;27858;51.414;0.018;2023-04-28T10:18:25;14.70;99.90
42187;DHT22;27858;51.414;0.018;2023-04-28T10:21:00;14.70;99.90
42187;DHT22;27858;51.414;0.018;2023-04-28T10:26:20;14.50;99.90
42187;DHT22;27858;51.414;0.018;2023-04-28T10:28:51;14.60;99.90
42187;DHT22;27858;51.414;0.018;2023-04-28T10:31:19;14.70;99.90
42187;DHT22;27858;51.414;0.018;2023-04-28T10:33:46;14.90;99.90
42187;DHT22;27858;51.414;0.018;2023-04-28T10:36:45;15.20;99.90
42187;DHT22;27858;51.414;0.018;2023-04-28T10:39:13;15.40;99.90
42187;DHT22;27858;51.414;0.018;2023-04-28T10:41:40;15.60;99.90
42187;DHT22;27858;51.414;0.018;2023-04-28T10:47:01;15.90;99.90
42187;DHT22;27858;51.414;0.018;2023-04-28T11:00:54;15.40;99.90
42187;DHT22;27858;51.414;0.018;2023-04-28T11:06:24;15.20;99.90
42187;DHT22;27858;51.414;0.018;2023-04-28T11:11:25;14.90;99.90
42187;DHT22;27858;51.414;0.018;2023-04-28T11:13:54;15.00;99.90
42187;DHT22;27858;51.414;0.018;2023-04-28T11:16:23;15.10;99.90
42187;DHT22;27858;51.414;0.018;2023-04-28T11:18:51;15.40;99.90
42187;DHT22;27858;51.414;0.018;2023-04-28T11:21:22;15.40;99.90
42187;DHT22;27858;51.414;0.018;2023-04-28T11:23:50;15.60;99.90
42187;DHT22;27858;51.414;0.018;2023-04-28T11:26:18;15.50;99.90
42187;DHT22;27858;51.414;0.018;2023-04-28T11:28:49;15.70;99.90
42187;DHT22;27858;51.414;0.018;2023-04-28T11:31:17;15.70;99.90
42187;DHT22;27858;51.414;0.018;2023-04-28T11:33:58;15.60;99.90
42187;DHT22;27858;51.414;0.018;2023-04-28T11:36:28;15.80;99.90
42187;DHT22;27858;51.414;0.018;2023-04-28T11:38:58;16.00;99.90
42187;DHT22;27858;51.414;0.018;2023-04-28T11:41:25;16.00;99.90
42187;DHT22;27858;51.414;0.018;2023-04-28T11:43:52;16.20;99.90
42187;DHT22;27858;51.414;0.018;2023-04-28T11:46:21;16.40;99.90
42187;DHT22;27858;51.414;0.018;2023-04-28T11:48:57;16.60;99.90
42187;DHT22;27858;51.414;0.018;2023-04-28T11:51:36;16.50;99.90
42187;DHT22;27858;51.414;0.018;2023-04-28T11:54:05;16.30;99.90
42187;DHT22;27858;51.414;0.018;2023-04-28T11:56:38;16.00;99.90
42187;DHT22;27858;51.414;0.018;2023-04-28T11:59:07;15.90;99.90
42187;DHT22;27858;51.414;0.018;2023-04-28T12:01:44;15.70;99.90
42187;DHT22;27858;51.414;0.018;2023-04-28T12:04:11;15.60;99.90
42187;DHT22;27858;51.414;0.018;2023-04-28T12:06:39;15.60;99.90
42187;DHT22;27858;51.414;0.018;2023-04-28T12:09:18;15.50;99.90
42187;DHT22;27858;51.414;0.018;2023-04-28T12:11:58;15.60;99.90
42187;DHT22;27858;51.414;0.018;2023-04-28T12:14:25;15.80;99.90
42187;DHT22;27858;51.414;0.018;2023-04-28T12:16:52;15.90;99.90
42187;DHT22;27858;51.414;0.018;2023-04-28T12:19:19;16.20;99.90
42187;DHT22;27858;51.414;0.018;2023-04-28T12:22:00;16.50;99.90
42187;DHT22;27858;51.414;0.018;2023-04-28T12:24:28;16.60;99.90
42187;DHT22;27858;51.414;0.018;2023-04-28T12:27:16;16.90;99.90
42187;DHT22;27858;51.414;0.018;2023-04-28T12:29:43;17.10;99.90
42187;DHT22;27858;51.414;0.018;2023-04-28T12:32:12;17.20;99.90
42187;DHT22;27858;51.414;0.018;2023-04-28T12:34:40;17.30;99.90
42187;DHT22;27858;51.414;0.018;2023-04-28T12:37:08;17.20;99.90
42187;DHT22;27858;51.414;0.018;2023-04-28T12:39:35;17.30;99.90
42187;DHT22;27858;51.414;0.018;2023-04-28T12:42:05;17.00;99.90
42187;DHT22;27858;51.414;0.018;2023-04-28T12:44:33;16.90;99.90
42187;DHT22;27858;51.414;0.018;2023-04-28T12:47:05;17.00;99.90
42187;DHT22;27858;51.414;0.018;2023-04-28T12:49:36;17.00;99.90
42187;DHT22;27858;51.414;0.018;2023-04-28T12:52:04;16.80;99.90
42187;DHT22;27858;51.414;0.018;2023-04-28T12:54:31;16.60;99.90
42187;DHT22;27858;51.414;0.018;2023-04-28T12:56:58;16.60;99.90
42187;DHT22;27858;51.414;0.018;2023-04-28T12:59:25;16.70;99.90
42187;DHT22;27858;51.414;0.018;2023-04-28T13:01:52;16.90;99.90
42187;DHT22;27858;51.414;0.018;2023-04-28T13:04:19;16.90;99.90
42187;DHT22;27858;51.414;0.018;2023-04-28T13:06:46;17.10;99.90
42187;DHT22;27858;51.414;0.018;2023-04-28T13:09:14;17.30;99.90
42187;DHT22;27858;51.414;0.018;2023-04-28T13:11:41;17.30;99.90
42187;DHT22;27858;51.414;0.018;2023-04-28T13:14:08;17.50;99.90
42187;DHT22;27858;51.414;0.018;2023-04-28T13:16:35;17.40;99.90
42187;DHT22;27858;51.414;0.018;2023-04-28T13:19:03;17.40;99.90
42187;DHT22;27858;51.414;0.018;2023-04-28T13:21:30;17.40;99.90
42187;DHT22;27858;51.414;0.018;2023-04-28T13:23:57;17.20;99.90
42187;DHT22;27858;51.414;0.018;2023-04-28T13:26:25;17.20;99.90
42187;DHT22;27858;51.414;0.018;2023-04-28T13:28:52;17.20;99.90
42187;DHT22;27858;51.414;0.018;2023-04-28T13:31:19;17.20;99.90
42187;DHT22;27858;51.414;0.018;2023-04-28T13:33:46;17.00;99.90
42187;DHT22;27858;51.414;0.018;2023-04-28T13:36:12;17.10;99.90
42187;DHT22;27858;51.414;0.018;2023-04-28T13:38:39;17.10;99.90
42187;DHT22;27858;51.414;0.018;2023-04-28T13:41:06;17.10;99.90
42187;DHT22;27858;51.414;0.018;2023-04-28T13:43:33;17.20;99.90
42187;DHT22;27858;51.414;0.018;2023-04-28T13:46:02;17.30;99.90
42187;DHT22;27858;51.414;0.018;2023-04-28T13:48:34;17.40;99.90
42187;DHT22;27858;51.414;0.018;2023-04-28T13:51:04;17.90;99.90
42187;DHT22;27858;51.414;0.018;2023-04-28T13:53:31;18.10;99.90
42187;DHT22;27858;51.414;0.018;2023-04-28T13:55:58;18.00;99.90
42187;DHT22;27858;51.414;0.018;2023-04-28T13:58:26;18.00;99.90
42187;DHT22;27858;51.414;0.018;2023-04-28T14:00:54;17.80;99.90
42187;DHT22;27858;51.414;0.018;2023-04-28T14:03:24;17.50;99.90
42187;DHT22;27858;51.414;0.018;2023-04-28T14:05:53;17.60;99.90
42187;DHT22;27858;51.414;0.018;2023-04-28T14:08:21;17.60;99.90
42187;DHT22;27858;51.414;0.018;2023-04-28T14:10:49;17.70;99.90
42187;DHT22;27858;51.414;0.018;2023-04-28T14:13:17;17.80;99.90
42187;DHT22;27858;51.414;0.018;2023-04-28T14:15:44;17.90;99.90
42187;DHT22;27858;51.414;0.018;2023-04-28T14:18:24;18.00;99.90
42187;DHT22;27858;51.414;0.018;2023-04-28T14:20:51;18.50;99.90
42187;DHT22;27858;51.414;0.018;2023-04-28T14:23:21;19.10;99.90
42187;DHT22;27858;51.414;0.018;2023-04-28T14:25:48;19.10;99.90
42187;DHT22;27858;51.414;0.018;2023-04-28T14:28:16;18.90;99.90
42187;DHT22;27858;51.414;0.018;2023-04-28T14:30:43;18.90;99.90
42187;DHT22;27858;51.414;0.018;2023-04-28T14:33:10;18.60;99.90
42187;DHT22;27858;51.414;0.018;2023-04-28T14:35:37;18.40;99.90
42187;DHT22;27858;51.414;0.018;2023-04-28T14:38:05;18.50;99.90
42187;DHT22;27858;51.414;0.018;2023-04-28T14:40:31;18.30;99.90
42187;DHT22;27858;51.414;0.018;2023-04-28T14:42:58;18.20;99.90
42187;DHT22;27858;51.414;0.018;2023-04-28T14:45:25;18.00;99.90
42187;DHT22;27858;51.414;0.018;2023-04-28T14:47:52;17.80;99.90
42187;DHT22;27858;51.414;0.018;2023-04-28T14:50:19;17.90;99.90
42187;DHT22;27858;51.414;0.018;2023-04-28T14:52:46;18.00;99.90
42187;DHT22;27858;51.414;0.018;2023-04-28T14:55:13;18.20;99.90
42187;DHT22;27858;51.414;0.018;2023-04-28T14:57:40;18.40;99.90
42187;DHT22;27858;51.414;0.018;2023-04-28T15:00:08;18.60;99.90
42187;DHT22;27858;51.414;0.018;2023-04-28T15:02:35;18.80;99.90
42187;DHT22;27858;51.414;0.018;2023-04-28T15:05:02;19.00;99.90
42187;DHT22;27858;51.414;0.018;2023-04-28T15:07:29;19.10;99.90
42187;DHT22;27858;51.414;0.018;2023-04-28T15:09:59;19.30;99.90
42187;DHT22;27858;51.414;0.018;2023-04-28T15:12:26;19.40;99.90
42187;DHT22;27858;51.414;0.018;2023-04-28T15:14:56;19.70;93.90
42187;DHT22;27858;51.414;0.018;2023-04-28T15:17:23;20.20;78.90
42187;DHT22;27858;51.414;0.018;2023-04-28T15:19:50;20.70;1.00
42187;DHT22;27858;51.414;0.018;2023-04-28T15:22:17;20.80;1.00
42187;DHT22;27858;51.414;0.018;2023-04-28T15:24:44;20.80;1.00
42187;DHT22;27858;51.414;0.018;2023-04-28T15:27:11;20.70;1.00
42187;DHT22;27858;51.414;0.018;2023-04-28T15:29:38;20.50;1.00
42187;DHT22;27858;51.414;0.018;2023-04-28T15:32:05;20.30;1.00
42187;DHT22;27858;51.414;0.018;2023-04-28T15:34:32;20.40;1.00
42187;DHT22;27858;51.414;0.018;2023-04-28T15:37:07;19.80;1.00
42187;DHT22;27858;51.414;0.018;2023-04-28T15:39:51;19.80;1.00
42187;DHT22;27858;51.414;0.018;2023-04-28T15:42:17;19.50;1.50
42187;DHT22;27858;51.414;0.018;2023-04-28T15:44:44;19.40;17.90
42187;DHT22;27858;51.414;0.018;2023-04-28T15:47:13;19.20;14.00
42187;DHT22;27858;51.414;0.018;2023-04-28T15:49:40;19.10;24.80
42187;DHT22;27858;51.414;0.018;2023-04-28T15:52:07;19.00;39.20
42187;DHT22;27858;51.414;0.018;2023-04-28T15:54:34;19.00;37.00
42187;DHT22;27858;51.414;0.018;2023-04-28T15:57:01;19.00;34.90
42187;DHT22;27858;51.414;0.018;2023-04-28T15:59:28;18.80;56.40
42187;DHT22;27858;51.414;0.018;2023-04-28T16:01:56;18.90;65.80
42187;DHT22;27858;51.414;0.018;2023-04-28T16:04:23;18.90;65.90
42187;DHT22;27858;51.414;0.018;2023-04-28T16:06:50;18.80;46.50
42187;DHT22;27858;51.414;0.018;2023-04-28T16:09:20;18.90;59.50
42187;DHT22;27858;51.414;0.018;2023-04-28T16:11:47;18.80;41.20
42187;DHT22;27858;51.414;0.018;2023-04-28T16:14:14;18.90;42.80
42187;DHT22;27858;51.414;0.018;2023-04-28T16:16:41;19.00;52.50
42187;DHT22;27858;51.414;0.018;2023-04-28T16:19:07;19.10;23.40
42187;DHT22;27858;51.414;0.018;2023-04-28T16:21:35;19.10;19.10
42187;DHT22;27858;51.414;0.018;2023-04-28T16:24:02;19.10;8.20
42187;DHT22;27858;51.414;0.018;2023-04-28T16:26:30;19.10;19.50
42187;DHT22;27858;51.414;0.018;2023-04-28T16:28:57;19.00;6.40
42187;DHT22;27858;51.414;0.018;2023-04-28T16:31:24;19.00;1.00
42187;DHT22;27858;51.414;0.018;2023-04-28T16:33:51;19.10;1.00
42187;DHT22;27858;51.414;0.018;2023-04-28T16:36:18;18.90;9.50
42187;DHT22;27858;51.414;0.018;2023-04-28T16:38:45;18.80;1.00
42187;DHT22;27858;51.414;0.018;2023-04-28T16:41:12;18.70;7.40
42187;DHT22;27858;51.414;0.018;2023-04-28T16:43:39;18.70;21.50
42187;DHT22;27858;51.414;0.018;2023-04-28T16:46:05;18.50;1.90
42187;DHT22;27858;51.414;0.018;2023-04-28T16:48:33;18.40;16.10
42187;DHT22;27858;51.414;0.018;2023-04-28T16:51:00;18.40;27.30
42187;DHT22;27858;51.414;0.018;2023-04-28T16:53:27;18.40;39.80
42187;DHT22;27858;51.414;0.018;2023-04-28T16:55:54;18.30;26.40
42187;DHT22;27858;51.414;0.018;2023-04-28T16:58:20;18.10;11.20
42187;DHT22;27858;51.414;0.018;2023-04-28T17:00:47;18.10;44.50
42187;DHT22;27858;51.414;0.018;2023-04-28T17:03:14;18.20;68.10
42187;DHT22;27858;51.414;0.018;2023-04-28T17:05:42;18.10;47.50
42187;DHT22;27858;51.414;0.018;2023-04-28T17:08:09;18.20;38.30
42187;DHT22;27858;51.414;0.018;2023-04-28T17:10:36;18.30;72.40
42187;DHT22;27858;51.414;0.018;2023-04-28T17:13:04;18.30;42.00
42187;DHT22;27858;51.414;0.018;2023-04-28T17:15:30;18.30;56.50
42187;DHT22;27858;51.414;0.018;2023-04-28T17:17:57;18.30;56.20
42187;DHT22;27858;51.414;0.018;2023-04-28T17:20:24;18.30;48.10
42187;DHT22;27858;51.414;0.018;2023-04-28T17:22:51;18.30;49.60
42187;DHT22;27858;51.414;0.018;2023-04-28T17:25:21;18.10;27.00
42187;DHT22;27858;51.414;0.018;2023-04-28T17:27:48;18.00;33.50
42187;DHT22;27858;51.414;0.018;2023-04-28T17:30:15;17.90;27.30
42187;DHT22;27858;51.414;0.018;2023-04-28T17:32:42;17.80;33.70
42187;DHT22;27858;51.414;0.018;2023-04-28T17:35:09;17.70;22.20
42187;DHT22;27858;51.414;0.018;2023-04-28T17:37:36;17.70;46.00
42187;DHT22;27858;51.414;0.018;2023-04-28T17:40:03;17.70;41.60
42187;DHT22;27858;51.414;0.018;2023-04-28T17:42:30;17.60;28.70
42187;DHT22;27858;51.414;0.018;2023-04-28T17:44:57;17.50;36.60
42187;DHT22;27858;51.414;0.018;2023-04-28T17:47:24;17.60;51.10
42187;DHT22;27858;51.414;0.018;2023-04-28T17:49:51;17.50;50.50
42187;DHT22;27858;51.414;0.018;2023-04-28T17:52:18;17.40;61.30
42187;DHT22;27858;51.414;0.018;2023-04-28T17:54:45;17.50;88.10
42187;DHT22;27858;51.414;0.018;2023-04-28T17:57:12;17.40;93.00
42187;DHT22;27858;51.414;0.018;2023-04-28T17:59:39;17.30;91.80
42187;DHT22;27858;51.414;0.018;2023-04-28T18:02:09;17.40;99.90
42187;DHT22;27858;51.414;0.018;2023-04-28T18:04:37;17.40;99.90
42187;DHT22;27858;51.414;0.018;2023-04-28T18:07:05;17.30;99.90
42187;DHT22;27858;51.414;0.018;2023-04-28T18:09:33;17.30;99.90
42187;DHT22;27858;51.414;0.018;2023-04-28T18:12:00;17.30;99.90
42187;DHT22;27858;51.414;0.018;2023-04-28T18:14:29;17.30;99.90
42187;DHT22;27858;51.414;0.018;2023-04-28T18:16:56;17.30;99.90
42187;DHT22;27858;51.414;0.018;2023-04-28T18:19:27;17.30;99.90
42187;DHT22;27858;51.414;0.018;2023-04-28T18:21:54;17.20;99.90
42187;DHT22;27858;51.414;0.018;2023-04-28T18:24:23;17.20;99.90
42187;DHT22;27858;51.414;0.018;2023-04-28T18:26:49;17.10;99.90
42187;DHT22;27858;51.414;0.018;2023-04-28T18:29:16;17.10;99.90
42187;DHT22;27858;51.414;0.018;2023-04-28T18:31:44;17.10;99.90
42187;DHT22;27858;51.414;0.018;2023-04-28T18:34:12;17.10;99.90
42187;DHT22;27858;51.414;0.018;2023-04-28T18:36:39;17.10;99.90
42187;DHT22;27858;51.414;0.018;2023-04-28T18:39:06;17.00;99.90
42187;DHT22;27858;51.414;0.018;2023-04-28T18:41:35;17.00;99.90
42187;DHT22;27858;51.414;0.018;2023-04-28T18:44:02;17.00;99.90
42187;DHT22;27858;51.414;0.018;2023-04-28T18:46:29;16.90;99.90
42187;DHT22;27858;51.414;0.018;2023-04-28T18:48:56;16.80;99.90
42187;DHT22;27858;51.414;0.018;2023-04-28T18:51:23;16.80;99.90
42187;DHT22;27858;51.414;0.018;2023-04-28T18:53:50;16.70;99.90
42187;DHT22;27858;51.414;0.018;2023-04-28T18:56:17;16.60;99.90
42187;DHT22;27858;51.414;0.018;2023-04-28T18:58:44;16.60;99.90
42187;DHT22;27858;51.414;0.018;2023-04-28T19:01:16;16.50;99.90
42187;DHT22;27858;51.414;0.018;2023-04-28T19:03:43;16.50;99.90
42187;DHT22;27858;51.414;0.018;2023-04-28T19:06:10;16.40;99.90
42187;DHT22;27858;51.414;0.018;2023-04-28T19:08:38;16.40;99.90
42187;DHT22;27858;51.414;0.018;2023-04-28T19:11:05;16.30;99.90
42187;DHT22;27858;51.414;0.018;2023-04-28T19:13:33;16.30;99.90
42187;DHT22;27858;51.414;0.018;2023-04-28T19:16:00;16.30;99.90
42187;DHT22;27858;51.414;0.018;2023-04-28T19:18:29;16.20;99.90
42187;DHT22;27858;51.414;0.018;2023-04-28T19:21:00;16.10;99.90
42187;DHT22;27858;51.414;0.018;2023-04-28T19:23:29;16.10;99.90
42187;DHT22;27858;51.414;0.018;2023-04-28T19:25:57;16.00;99.90
42187;DHT22;27858;51.414;0.018;2023-04-28T19:28:25;16.00;99.90
42187;DHT22;27858;51.414;0.018;2023-04-28T19:30:52;15.90;99.90
42187;DHT22;27858;51.414;0.018;2023-04-28T19:33:20;15.80;99.90
42187;DHT22;27858;51.414;0.018;2023-04-28T19:35:52;15.70;99.90
42187;DHT22;27858;51.414;0.018;2023-04-28T19:38:22;15.60;99.90
42187;DHT22;27858;51.414;0.018;2023-04-28T19:40:56;15.50;99.90
42187;DHT22;27858;51.414;0.018;2023-04-28T19:43:23;15.40;99.90
42187;DHT22;27858;51.414;0.018;2023-04-28T19:45:50;15.30;99.90
42187;DHT22;27858;51.414;0.018;2023-04-28T19:48:17;15.20;99.90
42187;DHT22;27858;51.414;0.018;2023-04-28T19:50:45;15.10;99.90
42187;DHT22;27858;51.414;0.018;2023-04-28T19:53:12;15.00;99.90
42187;DHT22;27858;51.414;0.018;2023-04-28T19:55:39;15.00;99.90
42187;DHT22;27858;51.414;0.018;2023-04-28T19:58:06;14.80;99.90
42187;DHT22;27858;51.414;0.018;2023-04-28T20:00:33;14.70;99.90
42187;DHT22;27858;51.414;0.018;2023-04-28T20:03:00;14.70;99.90